Time,TemperatureF,DewpointF,PressureIn,WindDirection,WindDirectionDegrees,WindSpeedMPH,WindSpeedGustMPH,Humidity,HourlyPrecipIn,Conditions,Clouds,dailyrainin,SoftwareType,DateUTC
2013-04-08 00:06:00,37.7,13.0,29.90,North,360,4.0,-999.0,37,-99.99,,,0.01,weatherlink.com 1.10,2013-04-08 06:06:00,
2013-04-08 00:51:00,42.9,16.0,29.88,North,360,6.0,-999.0,34,-99.99,,,0.01,weatherlink.com 1.10,2013-04-08 06:51:00,
2013-04-08 01:36:00,44.5,18.0,29.85,North,360,9.0,-999.0,34,-99.99,,,0.01,weatherlink.com 1.10,2013-04-08 07:36:00,
2013-04-08 01:51:00,44.5,18.0,29.84,North,360,11.0,-999.0,34,-99.99,,,0.01,weatherlink.com 1.10,2013-04-08 07:51:00,
2013-04-08 02:06:00,44.8,17.0,29.83,North,360,11.0,-999.0,33,-99.99,,,0.01,weatherlink.com 1.10,2013-04-08 08:06:00,
2013-04-08 02:21:00,44.7,18.0,29.82,North,360,11.0,-999.0,35,-99.99,,,0.01,weatherlink.com 1.10,2013-04-08 08:21:00,
2013-04-08 02:36:00,44.9,19.0,29.80,North,360,11.0,-999.0,36,-99.99,,,0.00,weatherlink.com 1.10,2013-04-08 08:36:00,
2013-04-08 02:51:00,44.7,19.0,29.79,North,360,10.0,-999.0,36,-99.99,,,0.00,weatherlink.com 1.10,2013-04-08 08:51:00,
2013-04-08 03:06:00,44.8,19.0,29.78,North,360,11.0,-999.0,35,-99.99,,,0.00,weatherlink.com 1.10,2013-04-08 09:06:00,
2013-04-08 03:21:00,44.9,18.0,29.77,North,360,13.0,-999.0,34,-99.99,,,0.00,weatherlink.com 1.10,2013-04-08 09:21:00,
2013-04-08 03:36:00,44.9,17.0,29.75,North,360,11.0,-999.0,32,-99.99,,,0.00,weatherlink.com 1.10,2013-04-08 09:36:00,
2013-04-08 03:51:00,44.8,16.0,29.75,North,360,11.0,-999.0,32,-99.99,,,0.00,weatherlink.com 1.10,2013-04-08 09:51:00,
2013-04-08 04:07:00,44.4,17.0,29.74,North,360,9.0,-999.0,34,-99.99,,,0.00,weatherlink.com 1.10,2013-04-08 10:07:00,
2013-04-08 04:36:00,43.5,17.0,29.73,North,360,10.0,-999.0,35,-99.99,,,0.00,weatherlink.com 1.10,2013-04-08 10:36:00,
2013-04-08 04:52:00,43.4,17.0,29.73,North,360,12.0,-999.0,35,-99.99,,,0.00,weatherlink.com 1.10,2013-04-08 10:52:00,
2013-04-08 05:07:00,43.7,16.0,29.73,North,360,11.0,-999.0,33,-99.99,,,0.00,weatherlink.com 1.10,2013-04-08 11:07:00,
2013-04-08 05:22:00,44.0,15.0,29.73,North,360,9.0,-999.0,31,-99.99,,,0.00,weatherlink.com 1.10,2013-04-08 11:22:00,
2013-04-08 05:37:00,44.2,14.0,29.71,North,360,8.0,-999.0,29,-99.99,,,0.00,weatherlink.com 1.10,2013-04-08 11:37:00,
2013-04-08 05:52:00,44.2,14.0,29.70,North,360,12.0,-999.0,29,-99.99,,,0.00,weatherlink.com 1.10,2013-04-08 11:52:00,
2013-04-08 06:07:00,43.6,14.0,29.70,North,360,5.0,-999.0,30,-99.99,,,0.00,weatherlink.com 1.10,2013-04-08 12:07:00,
2013-04-08 06:22:00,43.2,14.0,29.69,North,360,11.0,-999.0,30,-99.99,,,0.00,weatherlink.com 1.10,2013-04-08 12:22:00,
2013-04-08 06:37:00,43.4,14.0,29.69,North,360,14.0,-999.0,30,-99.99,,,0.00,weatherlink.com 1.10,2013-04-08 12:37:00,
2013-04-08 06:52:00,43.6,14.0,29.69,North,360,12.0,-999.0,30,-99.99,,,0.00,weatherlink.com 1.10,2013-04-08 12:52:00,
2013-04-08 07:07:00,43.6,15.0,29.68,North,360,14.0,-999.0,31,-99.99,,,0.00,weatherlink.com 1.10,2013-04-08 13:07:00,
2013-04-08 07:22:00,43.5,15.0,29.67,North,360,16.0,-999.0,31,-99.99,,,0.00,weatherlink.com 1.10,2013-04-08 13:22:00,
2013-04-08 07:37:00,43.4,15.0,29.67,North,360,16.0,-999.0,32,-99.99,,,0.00,weatherlink.com 1.10,2013-04-08 13:37:00,
2013-04-08 07:52:00,43.1,16.0,29.67,North,360,12.0,-999.0,34,-99.99,,,0.00,weatherlink.com 1.10,2013-04-08 13:52:00,
2013-04-08 08:07:00,42.9,17.0,29.67,North,360,6.0,-999.0,36,-99.99,,,0.00,weatherlink.com 1.10,2013-04-08 14:07:00,
2013-04-08 08:22:00,42.9,19.0,29.66,North,360,12.0,-999.0,38,-99.99,,,0.00,weatherlink.com 1.10,2013-04-08 14:22:00,
2013-04-08 08:37:00,42.9,19.0,29.65,North,360,12.0,-999.0,38,-99.99,,,0.00,weatherlink.com 1.10,2013-04-08 14:37:00,
2013-04-08 08:51:00,43.2,20.0,29.64,North,360,31.0,-999.0,39,-99.99,,,0.00,weatherlink.com 1.10,2013-04-08 14:51:00,
2013-04-08 09:07:00,43.6,20.0,29.62,North,360,22.0,-999.0,39,-99.99,,,0.00,weatherlink.com 1.10,2013-04-08 15:07:00,
2013-04-08 09:22:00,44.0,21.0,29.61,North,360,8.0,-999.0,40,-99.99,,,0.00,weatherlink.com 1.10,2013-04-08 15:22:00,
2013-04-08 09:37:00,44.6,20.0,29.60,North,360,15.0,-999.0,38,-99.99,,,0.00,weatherlink.com 1.10,2013-04-08 15:37:00,
2013-04-08 09:52:00,45.7,21.0,29.60,North,360,12.0,-999.0,38,-99.99,,,0.00,weatherlink.com 1.10,2013-04-08 15:52:00,
2013-04-08 10:07:00,46.0,21.0,29.59,North,360,23.0,-999.0,37,-99.99,,,0.00,weatherlink.com 1.10,2013-04-08 16:07:00,
2013-04-08 10:22:00,47.1,22.0,29.60,North,360,17.0,-999.0,37,-99.99,,,0.00,weatherlink.com 1.10,2013-04-08 16:22:00,
2013-04-08 10:37:00,48.2,22.0,29.59,North,360,7.0,-999.0,36,-99.99,,,0.00,weatherlink.com 1.10,2013-04-08 16:37:00,
2013-04-08 10:52:00,48.9,22.0,29.59,North,360,10.0,-999.0,35,-99.99,,,0.00,weatherlink.com 1.10,2013-04-08 16:52:00,
2013-04-08 11:07:00,48.7,21.0,29.59,North,360,9.0,-999.0,34,-99.99,,,0.00,weatherlink.com 1.10,2013-04-08 17:07:00,
2013-04-08 11:22:00,49.7,22.0,29.58,North,360,6.0,-999.0,34,-99.99,,,0.00,weatherlink.com 1.10,2013-04-08 17:22:00,
2013-04-08 11:37:00,48.7,22.0,29.58,North,360,15.0,-999.0,35,-99.99,,,0.00,weatherlink.com 1.10,2013-04-08 17:37:00,
2013-04-08 11:52:00,47.2,23.0,29.58,North,360,23.0,-999.0,38,-99.99,,,0.00,weatherlink.com 1.10,2013-04-08 17:52:00,
2013-04-08 12:07:00,46.6,23.0,29.58,North,360,10.0,-999.0,40,-99.99,,,0.00,weatherlink.com 1.10,2013-04-08 18:07:00,
2013-04-08 12:22:00,46.5,23.0,29.57,North,360,7.0,-999.0,40,-99.99,,,0.00,weatherlink.com 1.10,2013-04-08 18:22:00,
2013-04-08 12:37:00,45.9,23.0,29.58,North,360,4.0,-999.0,41,-99.99,,,0.00,weatherlink.com 1.10,2013-04-08 18:37:00,
2013-04-08 12:52:00,42.4,27.0,29.56,North,360,8.0,-999.0,54,-99.99,,,0.00,weatherlink.com 1.10,2013-04-08 18:52:00,
2013-04-08 13:08:00,41.4,26.0,29.55,North,360,3.0,-999.0,55,-99.99,,,0.00,weatherlink.com 1.10,2013-04-08 19:08:00,
2013-04-08 13:23:00,41.8,26.0,29.54,North,360,5.0,-999.0,53,-99.99,,,0.00,weatherlink.com 1.10,2013-04-08 19:23:00,
2013-04-08 13:38:00,42.4,27.0,29.54,North,360,7.0,-999.0,55,-99.99,,,0.00,weatherlink.com 1.10,2013-04-08 19:38:00,
2013-04-08 13:53:00,42.4,27.0,29.55,North,360,11.0,-999.0,54,-99.99,,,0.00,weatherlink.com 1.10,2013-04-08 19:53:00,
2013-04-08 14:08:00,42.3,26.0,29.52,North,360,16.0,-999.0,53,-99.99,,,0.00,weatherlink.com 1.10,2013-04-08 20:08:00,
2013-04-08 14:23:00,42.4,26.0,29.51,North,360,16.0,-999.0,53,-99.99,,,0.00,weatherlink.com 1.10,2013-04-08 20:23:00,
2013-04-08 14:38:00,41.1,26.0,29.51,North,360,17.0,-999.0,56,-99.99,,,0.00,weatherlink.com 1.10,2013-04-08 20:38:00,
2013-04-08 14:53:00,41.4,27.0,29.48,North,360,16.0,-999.0,57,-99.99,,,0.00,weatherlink.com 1.10,2013-04-08 20:53:00,
2013-04-08 15:08:00,44.3,26.0,29.47,North,360,7.0,-999.0,48,-99.99,,,0.00,weatherlink.com 1.10,2013-04-08 21:08:00,
2013-04-08 15:23:00,44.3,25.0,29.48,North,360,16.0,-999.0,47,-99.99,,,0.00,weatherlink.com 1.10,2013-04-08 21:23:00,
2013-04-08 15:38:00,40.4,29.0,29.50,SE,133,15.0,-999.0,65,-99.99,,,0.00,weatherlink.com 1.10,2013-04-08 21:38:00,
2013-04-08 15:53:00,36.2,30.0,29.50,SE,136,11.0,-999.0,78,-99.99,,,0.01,weatherlink.com 1.10,2013-04-08 21:53:00,
2013-04-08 16:08:00,35.1,30.0,29.50,WSW,248,0.0,-999.0,83,-99.99,,,0.04,weatherlink.com 1.10,2013-04-08 22:08:00,
2013-04-08 16:23:00,-999.0,-99.9,29.51,North,355,0.0,-999.0,84,-99.99,,,0.05,weatherlink.com 1.10,2013-04-08 22:23:00,
2013-04-08 16:38:00,34.0,30.0,29.51,North,355,0.0,-999.0,85,-99.99,,,0.05,weatherlink.com 1.10,2013-04-08 22:38:00,
2013-04-08 16:53:00,33.8,31.0,29.48,East,89,4.0,-999.0,88,-99.99,,,0.05,weatherlink.com 1.10,2013-04-08 22:53:00,
2013-04-08 17:08:00,33.9,31.0,29.51,South,173,0.0,-999.0,88,-99.99,,,0.05,weatherlink.com 1.10,2013-04-08 23:08:00,
2013-04-08 17:23:00,33.7,31.0,29.49,NE,45,3.0,-999.0,88,-99.99,,,0.05,weatherlink.com 1.10,2013-04-08 23:23:00,
2013-04-08 17:38:00,33.7,31.0,29.50,ESE,107,0.0,-999.0,89,-99.99,,,0.07,weatherlink.com 1.10,2013-04-08 23:38:00,
2013-04-08 17:53:00,33.9,31.0,29.51,SSE,149,0.0,-999.0,89,-99.99,,,0.08,weatherlink.com 1.10,2013-04-08 23:53:00,
2013-04-08 18:08:00,33.8,31.0,29.53,SSE,149,1.0,-999.0,89,-99.99,,,0.10,weatherlink.com 1.10,2013-04-09 00:08:00,
2013-04-08 18:23:00,33.5,31.0,29.53,East,89,1.0,-999.0,89,-99.99,,,0.10,weatherlink.com 1.10,2013-04-09 00:23:00,
2013-04-08 18:38:00,33.4,31.0,29.54,SE,127,0.0,-999.0,90,-99.99,,,0.12,weatherlink.com 1.10,2013-04-09 00:38:00,
2013-04-08 18:53:00,33.4,31.0,29.53,SE,135,5.0,-999.0,90,-99.99,,,0.14,weatherlink.com 1.10,2013-04-09 00:53:00,
2013-04-08 19:08:00,34.0,31.0,29.53,East,95,4.0,-999.0,89,-99.99,,,0.15,weatherlink.com 1.10,2013-04-09 01:08:00,
2013-04-08 19:23:00,34.7,31.0,29.54,SSE,154,2.0,-999.0,87,-99.99,,,0.16,weatherlink.com 1.10,2013-04-09 01:23:00,
2013-04-08 19:38:00,35.1,31.0,29.52,SE,142,7.0,-999.0,84,-99.99,,,0.16,weatherlink.com 1.10,2013-04-09 01:38:00,
2013-04-08 19:53:00,35.0,31.0,29.54,SE,140,5.0,-999.0,84,-99.99,,,0.17,weatherlink.com 1.10,2013-04-09 01:53:00,
2013-04-08 20:08:00,35.6,30.0,29.54,SE,132,14.0,-999.0,80,-99.99,,,0.17,weatherlink.com 1.10,2013-04-09 02:08:00,
2013-04-08 20:23:00,35.8,30.0,29.55,SSE,159,4.0,-999.0,80,-99.99,,,0.17,weatherlink.com 1.10,2013-04-09 02:23:00,
2013-04-08 20:38:00,35.3,30.0,29.56,SSW,213,9.0,-999.0,80,-99.99,,,0.18,weatherlink.com 1.10,2013-04-09 02:38:00,
2013-04-08 21:38:00,34.4,28.0,29.57,SSE,155,17.0,-999.0,78,-99.99,,,0.18,weatherlink.com 1.10,2013-04-09 03:38:00,
2013-04-08 21:53:00,34.1,28.0,29.56,ESE,123,23.0,-999.0,77,-99.99,,,0.18,weatherlink.com 1.10,2013-04-09 03:53:00,
2013-04-08 22:09:00,34.1,26.0,29.56,SE,144,30.0,-999.0,72,-99.99,,,0.18,weatherlink.com 1.10,2013-04-09 04:09:00,
2013-04-08 22:54:00,33.2,24.0,29.57,ESE,121,21.0,-999.0,69,-99.99,,,0.18,weatherlink.com 1.10,2013-04-09 04:54:00,
2013-04-08 23:09:00,33.9,24.0,29.59,SE,141,22.0,-999.0,66,-99.99,,,0.19,weatherlink.com 1.10,2013-04-09 05:09:00,